createdAt,value
2023-03-22T00:01:45.466Z,94682.00
2023-03-22T00:05:45.561Z,94687.00
2023-03-22T00:09:45.626Z,94685.00
2023-03-22T00:13:45.739Z,94682.00
2023-03-22T00:17:45.932Z,94684.00
2023-03-22T00:21:45.956Z,94687.00
2023-03-22T00:25:46.081Z,94685.00
2023-03-22T00:29:46.266Z,94682.00
2023-03-22T00:33:46.410Z,94682.00
2023-03-22T00:37:46.506Z,94678.00
2023-03-22T00:41:46.665Z,94676.00
2023-03-22T00:45:46.869Z,94674.00
2023-03-22T00:49:46.906Z,94672.00
2023-03-22T00:53:47.007Z,94668.00
2023-03-22T00:57:47.115Z,94664.00
2023-03-22T01:01:47.242Z,94664.00
2023-03-22T01:05:47.367Z,94670.00
2023-03-22T01:09:47.425Z,94668.00
2023-03-22T01:13:47.467Z,94668.00
2023-03-22T01:17:47.654Z,94668.00
2023-03-22T01:21:47.691Z,94666.00
2023-03-22T01:25:47.759Z,94666.00
2023-03-22T01:29:47.818Z,94662.00
2023-03-22T01:33:47.975Z,94666.00
2023-03-22T01:37:48.192Z,94664.00
2023-03-22T01:41:48.402Z,94666.00
2023-03-22T01:45:48.650Z,94662.00
2023-03-22T01:49:48.660Z,94662.00
2023-03-22T01:53:48.774Z,94662.00
2023-03-22T01:57:48.859Z,94656.00
2023-03-22T02:01:48.952Z,94660.00
2023-03-22T02:05:49.110Z,94654.00
2023-03-22T02:09:49.187Z,94652.00
2023-03-22T02:13:49.292Z,94650.00
2023-03-22T02:17:49.406Z,94654.00
2023-03-22T02:21:49.510Z,94652.00
2023-03-22T02:25:49.652Z,94646.00
2023-03-22T02:29:49.834Z,94646.00
2023-03-22T02:33:49.890Z,94652.00
2023-03-22T02:37:50.063Z,94654.00
2023-03-22T02:41:50.177Z,94648.00
2023-03-22T02:45:50.317Z,94656.00
2023-03-22T02:49:50.367Z,94658.00
2023-03-22T02:53:50.447Z,94658.00
2023-03-22T02:57:50.625Z,94662.00
2023-03-22T03:01:50.746Z,94654.00
2023-03-22T03:05:50.754Z,94660.00
2023-03-22T03:09:50.886Z,94656.00
2023-03-22T03:13:51.013Z,94654.00
2023-03-22T03:17:51.138Z,94652.00
2023-03-22T03:21:51.212Z,94640.00
2023-03-22T03:25:51.326Z,94638.00
2023-03-22T03:29:51.457Z,94642.00
2023-03-22T03:33:51.577Z,94640.00
2023-03-22T03:37:51.813Z,94640.00
2023-03-22T03:41:51.784Z,94646.00
2023-03-22T03:45:51.992Z,94644.00
2023-03-22T03:49:51.996Z,94642.00
2023-03-22T03:53:52.020Z,94648.00
2023-03-22T03:57:52.173Z,94650.00
2023-03-22T04:01:52.357Z,94642.00
2023-03-22T04:05:52.429Z,94642.00
2023-03-22T04:09:52.567Z,94642.00
2023-03-22T04:13:52.652Z,94640.00
2023-03-22T04:17:52.839Z,94642.00
2023-03-22T04:21:53.033Z,94642.00
2023-03-22T04:25:53.140Z,94638.00
2023-03-22T04:29:53.274Z,94635.00
2023-03-22T04:33:53.477Z,94635.00
2023-03-22T04:37:53.613Z,94637.00
2023-03-22T04:41:53.818Z,94637.00
2023-03-22T04:45:53.931Z,94638.00
2023-03-22T04:49:53.995Z,94637.00
2023-03-22T04:53:54.108Z,94640.00
2023-03-22T04:57:54.223Z,94640.00
2023-03-22T05:01:54.470Z,94646.00
2023-03-22T05:05:54.381Z,94650.00
2023-03-22T05:09:54.547Z,94652.00
2023-03-22T05:13:54.663Z,94658.00
2023-03-22T05:17:54.799Z,94658.00
2023-03-22T05:21:54.827Z,94660.00
2023-03-22T05:25:54.869Z,94656.00
2023-03-22T05:29:55.024Z,94658.00
2023-03-22T05:33:55.104Z,94664.00
2023-03-22T05:37:55.229Z,94670.00
2023-03-22T05:41:55.841Z,94666.00
2023-03-22T05:45:55.379Z,94672.00
2023-03-22T05:49:55.477Z,94672.00
2023-03-22T05:53:55.680Z,94670.00
2023-03-22T05:57:55.836Z,94666.00
2023-03-22T06:01:55.960Z,94672.00
2023-03-22T06:05:56.148Z,94672.00
2023-03-22T06:09:56.196Z,94674.00
2023-03-22T06:13:56.405Z,94674.00
2023-03-22T06:17:56.483Z,94678.00
2023-03-22T06:21:56.581Z,94678.00
2023-03-22T06:25:56.683Z,94676.00
2023-03-22T06:29:56.795Z,94678.00
2023-03-22T06:33:56.830Z,94678.00
2023-03-22T06:37:56.947Z,94676.00
2023-03-22T06:41:57.064Z,94668.00
2023-03-22T06:45:57.324Z,94670.00
2023-03-22T06:49:57.365Z,94668.00
2023-03-22T06:53:57.481Z,94668.00
2023-03-22T06:57:57.621Z,94660.00
2023-03-22T07:01:57.669Z,94662.00
2023-03-22T07:05:57.770Z,94668.00
2023-03-22T07:09:57.888Z,94668.00
2023-03-22T07:13:58.067Z,94666.00
2023-03-22T07:17:58.145Z,94666.00
2023-03-22T07:21:58.276Z,94670.00
2023-03-22T07:25:58.340Z,94674.00
2023-03-22T07:29:58.427Z,94672.00
2023-03-22T07:33:58.497Z,94668.00
2023-03-22T07:37:58.574Z,94668.00
2023-03-22T07:41:58.715Z,94664.00
2023-03-22T07:45:58.981Z,94658.00
2023-03-22T07:49:59.367Z,94660.00
2023-03-22T07:53:59.151Z,94660.00
2023-03-22T07:57:59.253Z,94660.00
2023-03-22T08:01:59.366Z,94654.00
2023-03-22T08:05:59.453Z,94656.00
2023-03-22T08:09:59.604Z,94652.00
2023-03-22T08:13:59.659Z,94650.00
2023-03-22T08:17:59.754Z,94644.00
2023-03-22T08:21:59.857Z,94642.00
2023-03-22T08:26:00.012Z,94637.00
2023-03-22T08:30:00.030Z,94635.00
2023-03-22T08:34:00.173Z,94635.00
2023-03-22T08:38:00.215Z,94633.00
2023-03-22T08:42:00.321Z,94635.00
2023-03-22T08:46:00.441Z,94623.00
2023-03-22T08:50:00.521Z,94615.00
2023-03-22T08:54:00.627Z,94613.00
2023-03-22T08:58:00.745Z,94607.00
2023-03-22T09:02:01.046Z,94593.00
2023-03-22T09:06:01.032Z,94584.00
2023-03-22T09:10:01.186Z,94582.00
2023-03-22T09:14:01.278Z,94582.00
2023-03-22T09:18:01.360Z,94578.00
2023-03-22T09:22:01.498Z,94562.00
2023-03-22T09:26:01.617Z,94554.00
2023-03-22T09:30:01.659Z,94550.00
2023-03-22T09:34:01.855Z,94546.00
2023-03-22T09:38:01.976Z,94544.00
2023-03-22T09:42:02.185Z,94537.00
2023-03-22T09:46:02.290Z,94529.00
2023-03-22T09:50:02.378Z,94517.00
2023-03-22T09:54:02.497Z,94517.00
2023-03-22T09:58:02.624Z,94507.00
2023-03-22T10:02:03.055Z,94499.00
2023-03-22T10:06:02.906Z,94495.00
2023-03-22T10:10:02.967Z,94489.00
2023-03-22T10:14:03.085Z,94480.00
2023-03-22T10:18:03.217Z,94476.00
2023-03-22T10:22:03.352Z,94464.00
2023-03-22T10:26:03.455Z,94456.00
2023-03-22T10:30:03.613Z,94452.00
2023-03-22T10:34:03.681Z,94446.00
2023-03-22T10:38:03.720Z,94440.00
2023-03-22T10:42:03.872Z,94438.00
2023-03-22T10:46:04.043Z,94433.00
2023-03-22T10:50:04.227Z,94431.00
2023-03-22T10:54:04.260Z,94423.00
2023-03-22T10:58:04.384Z,94417.00
2023-03-22T11:02:04.626Z,94415.00
2023-03-22T11:06:04.646Z,94411.00
2023-03-22T11:10:04.852Z,94409.00
2023-03-22T11:14:04.962Z,94399.00
2023-03-22T11:18:05.089Z,94389.00
2023-03-22T11:22:05.159Z,94389.00
2023-03-22T11:26:05.317Z,94385.00
2023-03-22T11:30:05.438Z,94378.00
2023-03-22T11:34:05.505Z,94362.00
2023-03-22T11:38:05.654Z,94350.00
2023-03-22T11:42:05.767Z,94346.00
2023-03-22T11:46:05.874Z,94339.00
2023-03-22T11:50:06.891Z,94331.00
2023-03-22T11:54:06.045Z,94321.00
2023-03-22T11:58:06.134Z,94315.00
2023-03-22T12:02:06.309Z,94311.00
2023-03-22T12:06:06.493Z,94305.00
2023-03-22T12:10:06.619Z,94295.00
2023-03-22T12:14:06.651Z,94291.00
2023-03-22T12:18:07.960Z,94282.00
2023-03-22T12:22:06.886Z,94274.00
2023-03-22T12:26:06.976Z,94264.00
2023-03-22T12:30:07.106Z,94260.00
2023-03-22T12:34:07.256Z,94254.00
2023-03-22T12:38:07.311Z,94240.00
2023-03-22T12:42:07.391Z,94234.00
2023-03-22T12:46:07.505Z,94231.00
2023-03-22T12:50:07.632Z,94221.00
2023-03-22T12:54:07.716Z,94211.00
2023-03-22T12:58:07.859Z,94209.00
2023-03-22T13:02:08.020Z,94201.00
2023-03-22T13:06:08.098Z,94195.00
2023-03-22T13:10:08.207Z,94191.00
2023-03-22T13:14:08.270Z,94191.00
2023-03-22T13:18:08.453Z,94187.00
2023-03-22T13:22:08.558Z,94180.00
2023-03-22T13:26:08.631Z,94172.00
2023-03-22T13:30:08.769Z,94164.00
2023-03-22T13:34:08.922Z,94160.00
2023-03-22T13:38:09.023Z,94156.00
2023-03-22T13:42:09.065Z,94150.00
2023-03-22T13:46:09.179Z,94146.00
2023-03-22T13:50:09.198Z,94146.00
2023-03-22T13:54:09.272Z,94142.00
2023-03-22T13:58:09.402Z,94129.00
2023-03-22T14:02:09.575Z,94123.00
2023-03-22T14:06:09.665Z,94123.00
2023-03-22T14:10:09.753Z,94117.00
2023-03-22T14:14:09.838Z,94103.00
2023-03-22T14:18:09.945Z,94105.00
2023-03-22T14:47:10.276Z,94072.00
2023-03-22T14:51:10.267Z,94078.00
2023-03-22T14:55:10.208Z,94076.00
2023-03-22T14:59:10.159Z,94072.00
2023-03-22T15:03:11.506Z,94070.00
2023-03-22T15:07:10.088Z,94064.00
2023-03-22T15:11:11.527Z,94062.00
2023-03-22T15:15:10.002Z,94056.00
2023-03-22T15:19:10.350Z,94046.00
2023-03-22T15:23:10.114Z,94044.00
2023-03-22T15:27:10.327Z,94042.00
2023-03-22T15:31:10.283Z,94054.00
2023-03-22T15:35:10.364Z,94054.00
2023-03-22T15:39:10.494Z,94054.00
2023-03-22T15:43:10.606Z,94052.00
2023-03-22T15:47:10.623Z,94050.00
2023-03-22T15:51:10.764Z,94048.00
2023-03-22T15:55:10.857Z,94048.00
2023-03-22T15:59:10.987Z,94052.00
2023-03-22T16:03:11.220Z,94056.00
2023-03-22T16:07:11.274Z,94058.00
2023-03-22T16:11:11.302Z,94066.00
2023-03-22T16:15:11.464Z,94064.00
2023-03-22T16:19:11.653Z,94068.00
2023-03-22T16:23:11.685Z,94070.00
2023-03-22T16:27:11.941Z,94078.00
2023-03-22T16:31:12.149Z,94080.00
2023-03-22T16:35:12.216Z,94084.00
2023-03-22T16:39:12.417Z,94082.00
2023-03-22T16:43:12.573Z,94090.00
2023-03-22T16:47:12.750Z,94092.00
2023-03-22T16:51:12.859Z,94097.00
2023-03-22T16:55:12.965Z,94099.00
2023-03-22T16:59:13.058Z,94105.00
2023-03-22T17:03:13.229Z,94107.00
2023-03-22T17:07:13.356Z,94121.00
2023-03-22T17:11:13.444Z,94129.00
2023-03-22T17:15:13.508Z,94129.00
2023-03-22T17:19:13.686Z,94133.00
2023-03-22T17:23:13.737Z,94133.00
2023-03-22T17:27:13.862Z,94139.00
2023-03-22T17:31:14.018Z,94142.00
2023-03-22T17:35:14.158Z,94152.00
2023-03-22T17:39:32.982Z,94158.00
2023-03-22T17:43:15.247Z,94160.00
2023-03-22T17:51:14.206Z,94172.00
2023-03-22T17:55:19.650Z,94180.00
2023-03-22T17:59:15.105Z,94191.00
2023-03-22T18:03:14.089Z,94197.00
2023-03-22T18:07:14.033Z,94209.00
2023-03-22T18:11:14.065Z,94213.00
2023-03-22T18:15:14.183Z,94223.00
2023-03-22T18:19:14.321Z,94234.00
2023-03-22T18:23:14.444Z,94238.00
2023-03-22T18:27:15.860Z,94252.00
2023-03-22T18:31:14.687Z,94260.00
2023-03-22T18:35:14.830Z,94266.00
2023-03-22T18:39:55.208Z,94272.00
2023-03-22T18:43:15.855Z,94280.00
2023-03-22T18:47:14.862Z,94276.00
2023-03-22T18:51:14.818Z,94288.00
2023-03-22T18:55:28.904Z,94299.00
2023-03-22T18:59:15.859Z,94293.00
2023-03-22T19:03:14.776Z,94299.00
2023-03-22T19:07:19.960Z,94303.00
2023-03-22T19:11:15.691Z,94305.00
2023-03-22T19:19:14.653Z,94317.00
2023-03-22T19:23:14.593Z,94317.00
2023-03-22T19:27:18.339Z,94323.00
2023-03-22T19:31:15.520Z,94313.00
2023-03-22T19:35:14.486Z,94317.00
2023-03-22T19:39:15.192Z,94325.00
2023-03-22T19:43:14.548Z,94331.00
2023-03-22T19:47:14.675Z,94331.00
2023-03-22T19:51:14.799Z,94329.00
2023-03-22T19:55:14.837Z,94319.00
2023-03-22T19:59:16.981Z,94319.00
2023-03-22T20:03:14.954Z,94325.00
2023-03-22T20:07:14.918Z,94331.00
2023-03-22T20:11:27.615Z,94327.00
2023-03-22T20:15:15.822Z,94335.00
2023-03-22T20:19:14.869Z,94333.00
2023-03-22T20:23:14.770Z,94342.00
2023-03-22T20:27:15.549Z,94342.00
2023-03-22T20:31:14.899Z,94344.00
2023-03-22T20:35:15.022Z,94352.00
2023-03-22T20:39:15.095Z,94352.00
2023-03-22T20:43:15.216Z,94354.00
2023-03-22T20:47:15.341Z,94356.00
2023-03-22T20:51:15.486Z,94364.00
2023-03-22T20:55:15.653Z,94366.00
2023-03-22T20:59:15.779Z,94374.00
2023-03-22T21:03:15.839Z,94380.00
2023-03-22T21:07:15.893Z,94380.00
2023-03-22T21:11:15.997Z,94383.00
2023-03-22T21:15:16.126Z,94385.00
2023-03-22T21:19:16.926Z,94393.00
2023-03-22T21:23:16.297Z,94399.00
2023-03-22T21:27:16.439Z,94397.00
2023-03-22T21:31:16.557Z,94405.00
2023-03-22T21:35:16.603Z,94405.00
2023-03-22T21:39:16.767Z,94409.00
2023-03-22T21:43:16.821Z,94415.00
2023-03-22T21:47:16.986Z,94415.00
2023-03-22T21:51:17.079Z,94413.00
2023-03-22T21:55:17.229Z,94407.00
2023-03-22T21:59:17.310Z,94417.00
2023-03-22T22:03:17.454Z,94421.00
2023-03-22T22:07:17.574Z,94423.00
2023-03-22T22:11:17.708Z,94423.00
2023-03-22T22:15:17.833Z,94419.00
2023-03-22T22:19:18.061Z,94421.00
2023-03-22T22:23:18.063Z,94423.00
2023-03-22T22:27:18.217Z,94421.00
2023-03-22T22:31:18.404Z,94427.00
2023-03-22T22:35:18.506Z,94431.00
2023-03-22T22:39:18.658Z,94429.00
2023-03-22T22:43:18.730Z,94433.00
2023-03-22T22:47:18.865Z,94433.00
2023-03-22T22:51:18.933Z,94433.00
2023-03-22T22:55:19.100Z,94427.00
2023-03-22T22:59:19.192Z,94436.00
2023-03-22T23:03:19.291Z,94436.00
2023-03-22T23:07:19.404Z,94427.00
2023-03-22T23:11:19.479Z,94423.00
2023-03-22T23:15:27.069Z,94425.00
2023-03-22T23:19:20.601Z,94419.00
2023-03-22T23:23:19.569Z,94419.00
2023-03-22T23:27:19.508Z,94415.00
2023-03-22T23:31:19.694Z,94421.00
2023-03-22T23:35:19.806Z,94411.00
2023-03-22T23:39:19.874Z,94413.00
2023-03-22T23:43:19.969Z,94419.00
2023-03-22T23:47:20.173Z,94419.00
2023-03-22T23:51:20.282Z,94421.00
2023-03-22T23:55:20.421Z,94427.00
2023-03-22T23:59:20.572Z,94429.00
